Time;durP1;ratioP1;P1;durP2;ratioP2;P2;SDS_P1;SDS_P2;PMS_P1;PMS_P2;Temp;Humidity;BMP_temperature;BMP_pressure;BME280_temperature;BME280_humidity;BME280_pressure;Samples;Min_cycle;Max_cycle;Signal;HPM_P1;HPM_P2
2021/11/22 00:00:14;;;;;;;;;;;;;;;3.70;72.49;101111.84;2073499;28;19913;-61
2021/11/22 00:01:15;;;;;;;;;;;;;;;3.68;72.75;101114.16;2074001;28;20023;-61
2021/11/22 00:02:15;;;;;;;;;;;;;;;3.68;73.10;101112.22;2073795;28;19913;-61
2021/11/22 00:03:16;;;;;;;;;;;;;;;3.68;73.05;101112.22;2073961;28;20093;-61
2021/11/22 00:04:17;;;;;;;;;;;;;;;3.67;72.35;101107.91;2074114;28;19913;-61
2021/11/22 00:05:17;;;;;;;;;;;;;;;3.66;71.68;101111.81;2074146;28;19913;-61
2021/11/22 00:06:18;;;;;;;;;;;;;;;3.63;71.10;101109.81;2073554;28;19914;-61
2021/11/22 00:07:18;;;;;;;;;;;;;;;3.64;71.06;101108.63;2073571;28;19975;-61
2021/11/22 00:08:19;;;;;;;;;;;;;;;3.62;70.95;101108.22;2065394;28;19914;-61
2021/11/22 00:09:20;;;;;;;;;;;;;;;3.61;70.62;101111.34;2065388;28;19920;-60
2021/11/22 00:10:20;;;;;;;;;;;;;;;3.57;70.72;101113.25;2073489;28;19917;-61
2021/11/22 00:11:20;;;;;;;;;;;;;;;3.55;72.08;101118.31;2073995;28;20011;-60
2021/11/22 00:12:21;;;;;;;;;;;;;;;3.49;72.67;101112.38;2073711;28;19914;-61
2021/11/22 00:13:22;;;;;;;;;;;;;;;3.42;72.68;101125.19;2073965;28;19925;-61
2021/11/22 00:14:22;;;;;;;;;;;;;;;3.42;72.81;101120.50;2074042;28;20421;-61
2021/11/22 00:15:22;;;;;;;;;;;;;;;3.42;72.24;101120.50;2074020;28;19913;-61
2021/11/22 00:16:23;;;;;;;;;;;;;;;3.42;71.79;101125.19;2073433;28;19939;-61
2021/11/22 00:17:23;;;;;;;;;;;;;;;3.38;71.60;101127.88;2073550;28;19917;-61
2021/11/22 00:18:23;;;;;;;;;;;;;;;3.36;71.27;101121.19;2073979;28;20383;-61
2021/11/22 00:19:24;;;;;;;;;;;;;;;3.36;71.79;101129.41;2073854;28;19921;-61
2021/11/22 00:20:24;;;;;;;;;;;;;;;3.34;71.88;101127.03;2073797;28;20299;-61
2021/11/22 00:21:24;;;;;;;;;;;;;;;3.34;71.23;101131.75;2073333;28;19914;-61
2021/11/22 00:22:26;;;;;;;;;;;;;;;3.32;71.51;101125.84;2073719;28;19999;-61
2021/11/22 00:23:26;;;;;;;;;;;;;;;3.29;71.57;101132.84;2073933;28;19920;-61
2021/11/22 00:24:27;;;;;;;;;;;;;;;3.29;71.53;101127.38;2073987;28;20368;-61
2021/11/22 00:25:27;;;;;;;;;;;;;;;3.28;71.41;101125.78;2074033;28;19913;-61
2021/11/22 00:26:27;;;;;;;;;;;;;;;3.25;71.63;101128.50;2073557;28;20316;-61
2021/11/22 00:27:28;;;;;;;;;;;;;;;3.17;71.84;101124.06;2073237;28;19951;-60
2021/11/22 00:28:28;;;;;;;;;;;;;;;3.15;71.96;101127.19;2073673;28;20410;-61
2021/11/22 00:29:29;;;;;;;;;;;;;;;3.13;72.90;101128.72;2074023;28;19976;-61
2021/11/22 00:30:29;;;;;;;;;;;;;;;3.12;73.78;101130.66;2073858;28;19931;-61
2021/11/22 00:31:29;;;;;;;;;;;;;;;3.13;73.75;101134.19;2064657;28;19965;-61
2021/11/22 00:32:30;;;;;;;;;;;;;;;3.12;74.07;101119.72;2064570;28;19922;-61
2021/11/22 00:33:31;;;;;;;;;;;;;;;3.12;73.79;101124.38;2074010;28;20376;-61
2021/11/22 00:34:41;;;;;;;;;;;;;;;3.12;73.92;101119.72;2073805;28;19913;-61
2021/11/22 00:35:46;;;;;;;;;;;;;;;3.15;73.52;101118.97;2073848;28;19967;-61
2021/11/22 00:36:47;;;;;;;;;;;;;;;3.15;73.30;101138.16;2073774;28;19913;-61
2021/11/22 00:37:51;;;;;;;;;;;;;;;3.17;73.05;101119.38;2072863;28;19920;-60
2021/11/22 00:38:51;;;;;;;;;;;;;;;3.17;72.83;101119.38;2072946;28;19914;-61
2021/11/22 00:39:52;;;;;;;;;;;;;;;3.19;72.69;101119.78;2073214;28;19913;-61
2021/11/22 00:40:53;;;;;;;;;;;;;;;3.20;72.94;101115.13;2073804;28;19913;-61
2021/11/22 00:41:53;;;;;;;;;;;;;;;3.20;73.00;101113.19;2073455;28;19918;-61
2021/11/22 00:42:54;;;;;;;;;;;;;;;3.21;72.45;101111.22;2073032;28;19924;-61
2021/11/22 00:43:54;;;;;;;;;;;;;;;3.20;72.65;101104.97;2073756;28;20410;-61
2021/11/22 00:44:56;;;;;;;;;;;;;;;3.21;72.23;101109.28;2073790;28;19972;-61
2021/11/22 00:45:57;;;;;;;;;;;;;;;3.21;71.86;101113.94;2073759;28;19967;-61
2021/11/22 00:46:57;;;;;;;;;;;;;;;3.21;72.41;101114.75;2064639;28;19914;-61
2021/11/22 00:47:59;;;;;;;;;;;;;;;3.22;71.89;101118.25;2064367;28;19914;-61
2021/11/22 00:48:59;;;;;;;;;;;;;;;3.19;71.73;101111.56;2073794;28;19997;-61
2021/11/22 00:49:59;;;;;;;;;;;;;;;3.20;71.24;101115.13;2073599;28;20445;-61
2021/11/22 00:51:00;;;;;;;;;;;;;;;3.21;71.70;101116.69;2073713;28;19917;-61
2021/11/22 00:52:00;;;;;;;;;;;;;;;3.20;71.08;101118.66;2073707;28;19913;-61
2021/11/22 00:53:02;;;;;;;;;;;;;;;3.17;71.22;101119.38;2072952;28;19917;-61
2021/11/22 00:54:02;;;;;;;;;;;;;;;3.16;71.50;101117.00;2073708;28;19944;-61
2021/11/22 00:55:03;;;;;;;;;;;;;;;3.15;71.28;101116.25;2073672;28;19913;-60
2021/11/22 00:56:03;;;;;;;;;;;;;;;3.13;70.72;101113.06;2073651;28;20000;-61
2021/11/22 00:57:04;;;;;;;;;;;;;;;3.12;71.17;101111.50;2073357;28;19917;-61
2021/11/22 00:58:04;;;;;;;;;;;;;;;3.11;70.95;101125.56;2073583;28;19918;-61
2021/11/22 00:59:05;;;;;;;;;;;;;;;3.11;71.20;101114.59;2073163;28;19992;-61
2021/11/22 01:00:07;;;;;;;;;;;;;;;3.09;71.42;101114.19;2073690;28;19917;-61
2021/11/22 01:01:07;;;;;;;;;;;;;;;3.08;71.30;101118.09;2073570;28;20016;-60
2021/11/22 01:02:08;;;;;;;;;;;;;;;3.08;71.29;101115.34;2073333;28;20399;-60
2021/11/22 01:03:08;;;;;;;;;;;;;;;3.08;71.73;101115.34;2073336;28;19920;-61
2021/11/22 01:04:09;;;;;;;;;;;;;;;3.07;71.71;101114.56;2073321;28;19972;-61
2021/11/22 01:05:09;;;;;;;;;;;;;;;3.07;71.79;101111.00;2073688;28;19914;-61
2021/11/22 01:06:10;;;;;;;;;;;;;;;3.08;71.81;101116.13;2073641;28;20433;-61
2021/11/22 01:07:10;;;;;;;;;;;;;;;3.06;71.93;101115.72;2073186;28;19914;-61
2021/11/22 01:08:10;;;;;;;;;;;;;;;3.05;71.89;101103.19;2073654;28;19913;-61
2021/11/22 01:09:11;;;;;;;;;;;;;;;3.08;71.85;101120.81;2073323;28;19913;-61
2021/11/22 01:10:13;;;;;;;;;;;;;;;3.08;72.46;101110.66;2073634;28;20299;-61
2021/11/22 01:11:13;;;;;;;;;;;;;;;3.08;72.27;101110.66;2073684;28;19913;-61
2021/11/22 01:12:14;;;;;;;;;;;;;;;3.08;72.38;101104.41;2073019;28;19925;-60
2021/11/22 01:13:14;;;;;;;;;;;;;;;3.11;72.62;101109.13;2073654;28;19921;-61
2021/11/22 01:14:15;;;;;;;;;;;;;;;3.09;72.54;101112.22;2073045;28;19920;-61
2021/11/22 01:15:18;;;;;;;;;;;;;;;3.10;73.47;101108.34;2073574;28;19991;-61
2021/11/22 01:16:18;;;;;;;;;;;;;;;3.11;72.88;101106.38;2064715;28;20008;-61
2021/11/22 01:17:20;;;;;;;;;;;;;;;3.11;74.46;101104.44;2064578;28;19921;-61
2021/11/22 01:18:20;;;;;;;;;;;;;;;3.14;73.51;101106.41;2073372;28;19921;-61
2021/11/22 01:19:20;;;;;;;;;;;;;;;3.16;73.64;101104.13;2073104;28;20186;-61
2021/11/22 01:20:28;;;;;;;;;;;;;;;3.18;73.00;101111.97;2073263;28;19914;-61
2021/11/22 01:21:28;;;;;;;;;;;;;;;3.19;73.99;101106.09;2073675;28;19913;-61
2021/11/22 01:22:28;;;;;;;;;;;;;;;3.18;72.88;101107.25;2072989;28;19996;-61
2021/11/22 01:23:29;;;;;;;;;;;;;;;3.20;72.35;101104.16;2073739;28;20338;-61
2021/11/22 01:24:29;;;;;;;;;;;;;;;3.18;72.31;101099.06;2073312;28;19917;-61
2021/11/22 01:25:30;;;;;;;;;;;;;;;3.18;72.28;101107.25;2073066;28;19923;-61
2021/11/22 01:26:30;;;;;;;;;;;;;;;3.18;72.30;101098.28;2073487;28;19944;-61
2021/11/22 01:27:30;;;;;;;;;;;;;;;3.19;72.52;101083.41;2073079;28;19975;-61
2021/11/22 01:28:31;;;;;;;;;;;;;;;3.21;72.34;101097.53;2073335;28;19914;-61
2021/11/22 01:29:31;;;;;;;;;;;;;;;3.22;71.51;101099.91;2073454;28;19913;-61
2021/11/22 01:30:32;;;;;;;;;;;;;;;3.23;71.53;101103.44;2072915;28;19914;-61
2021/11/22 01:31:33;;;;;;;;;;;;;;;3.20;71.27;101087.72;2073455;28;20008;-61
2021/11/22 01:32:33;;;;;;;;;;;;;;;3.20;71.18;101088.53;2073021;28;19924;-61
2021/11/22 01:33:33;;;;;;;;;;;;;;;3.19;71.25;101078.72;2073474;28;19917;-61
2021/11/22 01:34:34;;;;;;;;;;;;;;;3.19;71.94;101086.16;2073355;28;19924;-61
2021/11/22 01:35:34;;;;;;;;;;;;;;;3.18;71.92;101093.56;2073015;28;20315;-61
2021/11/22 01:36:35;;;;;;;;;;;;;;;3.18;71.21;101095.53;2073217;28;19953;-61
2021/11/22 01:37:35;;;;;;;;;;;;;;;3.16;71.72;101092.38;2073076;28;19920;-61
2021/11/22 01:38:36;;;;;;;;;;;;;;;3.14;71.69;101095.47;2073461;28;19963;-61
2021/11/22 01:39:36;;;;;;;;;;;;;;;3.15;71.75;101096.28;2073330;28;19944;-61
2021/11/22 01:40:36;;;;;;;;;;;;;;;3.14;71.63;101092.72;2072715;28;19920;-61
2021/11/22 01:41:37;;;;;;;;;;;;;;;3.14;71.00;101091.97;2073469;28;19913;-60
2021/11/22 01:42:38;;;;;;;;;;;;;;;3.14;70.91;101081.00;2072997;28;19917;-61
2021/11/22 01:43:38;;;;;;;;;;;;;;;3.14;71.38;101092.72;2073336;28;20089;-61
2021/11/22 01:44:38;;;;;;;;;;;;;;;3.11;70.66;101081.72;2073352;28;19996;-61
2021/11/22 01:45:39;;;;;;;;;;;;;;;3.09;70.62;101084.84;2073407;28;19948;-61
2021/11/22 01:46:39;;;;;;;;;;;;;;;3.08;70.28;101093.44;2072677;28;19913;-61
2021/11/22 01:47:41;;;;;;;;;;;;;;;3.06;70.40;101085.59;2072981;28;19960;-60
2021/11/22 01:48:41;;;;;;;;;;;;;;;3.06;69.95;101088.34;2073331;28;19914;-61
2021/11/22 01:49:42;;;;;;;;;;;;;;;3.04;70.17;101092.59;2073247;28;19913;-61
2021/11/22 01:50:43;;;;;;;;;;;;;;;3.02;69.98;101089.44;2072833;28;19928;-61
2021/11/22 01:51:44;;;;;;;;;;;;;;;3.00;70.01;101089.03;2073269;28;19917;-61
2021/11/22 01:52:45;;;;;;;;;;;;;;;2.98;69.89;101089.38;2072918;28;19913;-61
2021/11/22 01:53:46;;;;;;;;;;;;;;;2.96;69.16;101086.22;2073365;28;19913;-60
2021/11/22 01:54:46;;;;;;;;;;;;;;;2.92;69.75;101093.59;2073221;28;20212;-61
2021/11/22 01:55:47;;;;;;;;;;;;;;;2.84;70.24;101081.00;2073142;28;19913;-61
2021/11/22 01:56:47;;;;;;;;;;;;;;;2.76;69.16;101086.69;2073006;28;19936;-61
2021/11/22 01:57:48;;;;;;;;;;;;;;;2.76;69.38;101097.66;2072630;28;20360;-61
2021/11/22 01:58:49;;;;;;;;;;;;;;;2.72;69.63;101074.94;2073101;28;20004;-60
2021/11/22 01:59:49;;;;;;;;;;;;;;;2.63;69.03;101083.38;2072932;28;19993;-61
2021/11/22 02:00:55;;;;;;;;;;;;;;;2.59;69.52;101082.56;2072767;28;20422;-61
2021/11/22 02:01:56;;;;;;;;;;;;;;;2.58;69.93;101080.97;2073156;28;20004;-61
2021/11/22 02:02:56;;;;;;;;;;;;;;;2.58;69.82;101080.19;2072949;28;19913;-61
2021/11/22 02:03:57;;;;;;;;;;;;;;;2.57;69.79;101082.13;2073106;28;20292;-61
2021/11/22 02:04:57;;;;;;;;;;;;;;;2.58;69.61;101085.66;2064452;28;19914;-61
2021/11/22 02:05:58;;;;;;;;;;;;;;;2.56;69.26;101083.28;2056458;28;19953;-61
2021/11/22 02:06:58;;;;;;;;;;;;;;;2.55;69.11;101078.19;2064388;28;19949;-61
2021/11/22 02:07:59;;;;;;;;;;;;;;;2.52;69.02;101074.22;2072458;28;19917;-61
2021/11/22 02:08:59;;;;;;;;;;;;;;;2.48;69.46;101078.06;2073364;28;19920;-61
2021/11/22 02:10:00;;;;;;;;;;;;;;;2.44;69.52;101074.50;2073190;28;19914;-60
2021/11/22 02:11:00;;;;;;;;;;;;;;;2.34;69.70;101073.16;2073044;28;20430;-61
2021/11/22 02:12:00;;;;;;;;;;;;;;;2.34;70.03;101078.63;2072918;28;20288;-61
2021/11/22 02:13:02;;;;;;;;;;;;;;;2.36;70.15;101075.53;2064073;28;19949;-61
2021/11/22 02:14:03;;;;;;;;;;;;;;;2.36;70.03;101070.84;2064599;28;20024;-61
2021/11/22 02:15:04;;;;;;;;;;;;;;;2.35;70.55;101073.94;2073241;28;19914;-61
2021/11/22 02:16:05;;;;;;;;;;;;;;;2.36;70.28;101068.09;2073170;28;19914;-61
2021/11/22 02:17:08;;;;;;;;;;;;;;;2.37;70.90;101077.88;2072779;28;19917;-61
2021/11/22 02:18:09;;;;;;;;;;;;;;;2.37;70.28;101074.38;2072740;28;19923;-61
2021/11/22 02:19:09;;;;;;;;;;;;;;;2.35;70.75;101072.00;2072855;28;19913;-61
2021/11/22 02:20:14;;;;;;;;;;;;;;;2.33;70.89;101060.66;2072323;28;20347;-61
2021/11/22 02:21:14;;;;;;;;;;;;;;;2.32;71.49;101069.22;2072526;28;19917;-61
2021/11/22 02:22:15;;;;;;;;;;;;;;;2.33;71.66;101068.88;2072122;28;19970;-61
2021/11/22 02:23:16;;;;;;;;;;;;;;;2.24;70.76;101068.31;2073188;28;19913;-61
2021/11/22 02:24:16;;;;;;;;;;;;;;;2.20;71.36;101062.00;2064252;28;19944;-61
2021/11/22 02:25:18;;;;;;;;;;;;;;;2.24;71.40;101073.78;2064440;28;19917;-61
2021/11/22 02:26:20;;;;;;;;;;;;;;;2.26;71.23;101076.16;2073080;28;19971;-61
2021/11/22 02:27:20;;;;;;;;;;;;;;;2.24;70.92;101075.72;2072863;28;19914;-61
2021/11/22 02:28:21;;;;;;;;;;;;;;;2.21;70.99;101074.50;2072865;28;19914;-61
2021/11/22 02:29:21;;;;;;;;;;;;;;;2.17;71.10;101073.66;2072309;28;19925;-61
2021/11/22 02:30:29;;;;;;;;;;;;;;;2.18;71.78;101077.97;2073033;28;20384;-61
2021/11/22 02:31:31;;;;;;;;;;;;;;;2.19;72.45;101082.28;2073057;28;19914;-60
2021/11/22 02:32:31;;;;;;;;;;;;;;;2.16;71.94;101079.50;2072391;28;19917;-61
2021/11/22 02:33:32;;;;;;;;;;;;;;;2.13;71.62;101074.75;2073048;28;19919;-61
2021/11/22 02:34:32;;;;;;;;;;;;;;;2.12;71.72;101075.91;2073134;28;19939;-61
2021/11/22 02:35:34;;;;;;;;;;;;;;;2.14;72.08;101076.31;2073015;28;19963;-61
2021/11/22 02:36:35;;;;;;;;;;;;;;;2.11;71.76;101069.63;2073099;28;20383;-61
2021/11/22 02:37:35;;;;;;;;;;;;;;;2.12;71.62;101073.19;2072627;28;20366;-61
2021/11/22 02:38:39;;;;;;;;;;;;;;;2.14;71.65;101068.13;2073218;28;20192;-61
2021/11/22 02:39:39;;;;;;;;;;;;;;;2.17;71.54;101067.41;2072479;28;19917;-60
2021/11/22 02:40:40;;;;;;;;;;;;;;;2.17;71.35;101073.66;2073018;28;19914;-61
2021/11/22 02:41:40;;;;;;;;;;;;;;;2.12;71.12;101073.97;2073103;28;20404;-61
2021/11/22 02:42:42;;;;;;;;;;;;;;;2.13;71.14;101070.09;2072321;28;19960;-60
2021/11/22 02:43:43;;;;;;;;;;;;;;;2.17;71.43;101075.59;2072886;28;19914;-61
2021/11/22 02:44:43;;;;;;;;;;;;;;;2.17;71.94;101073.66;2073072;28;20459;-61
2021/11/22 02:45:44;;;;;;;;;;;;;;;2.20;71.93;101074.84;2064251;28;20081;-61
2021/11/22 02:46:44;;;;;;;;;;;;;;;2.20;71.90;101072.94;2064345;28;20467;-61
2021/11/22 02:47:46;;;;;;;;;;;;;;;2.24;72.10;101078.44;2072615;28;19920;-61
2021/11/22 02:48:46;;;;;;;;;;;;;;;2.26;72.05;101078.91;2073006;28;20350;-61
2021/11/22 02:49:47;;;;;;;;;;;;;;;2.27;72.29;101075.00;2072836;28;19914;-60
2021/11/22 02:50:47;;;;;;;;;;;;;;;2.27;72.45;101075.78;2072558;28;19972;-61
2021/11/22 02:51:49;;;;;;;;;;;;;;;2.27;72.53;101078.50;2064183;28;20431;-60
2021/11/22 02:52:50;;;;;;;;;;;;;;;2.30;72.99;101076.97;2058897;28;19936;-61
2021/11/22 02:54:00;;;;;;;;;;;;;;;2.27;73.44;101080.47;2064056;28;19920;-61
2021/11/22 02:55:01;;;;;;;;;;;;;;;2.30;73.41;101079.72;2064940;28;19961;-61
2021/11/22 02:56:03;;;;;;;;;;;;;;;2.33;73.84;101079.00;2064814;28;19921;-61
2021/11/22 02:57:04;;;;;;;;;;;;;;;2.35;73.48;101077.47;2064617;28;19924;-60
2021/11/22 02:58:04;;;;;;;;;;;;;;;2.33;73.65;101076.25;2064833;28;19979;-61
2021/11/22 02:59:06;;;;;;;;;;;;;;;2.32;73.98;101080.94;2064223;28;19924;-61
2021/11/22 03:00:10;;;;;;;;;;;;;;;2.37;73.80;101075.16;2064476;28;19985;-61
2021/11/22 03:01:11;;;;;;;;;;;;;;;2.40;74.21;101063.50;2063634;28;19976;-61
2021/11/22 03:02:12;;;;;;;;;;;;;;;2.38;74.54;101071.28;2063793;28;19968;-61
2021/11/22 03:03:13;;;;;;;;;;;;;;;2.44;74.23;101074.50;2072872;28;19914;-61
2021/11/22 03:04:13;;;;;;;;;;;;;;;2.47;74.62;101068.28;2072644;28;19917;-61
2021/11/22 03:05:14;;;;;;;;;;;;;;;2.51;75.17;101078.13;2072997;28;20034;-61
2021/11/22 03:06:16;;;;;;;;;;;;;;;2.53;75.17;101075.81;2072978;28;19917;-61
2021/11/22 03:07:17;;;;;;;;;;;;;;;2.55;75.09;101076.25;2072858;28;20300;-61
2021/11/22 03:08:17;;;;;;;;;;;;;;;2.59;75.42;101070.81;2072935;28;19956;-61
2021/11/22 03:09:17;;;;;;;;;;;;;;;2.63;75.30;101077.13;2072877;28;20008;-61
2021/11/22 03:10:18;;;;;;;;;;;;;;;2.65;75.75;101077.56;2072931;28;19913;-61
2021/11/22 03:11:19;;;;;;;;;;;;;;;2.70;75.59;101071.75;2072881;28;20362;-61
2021/11/22 03:12:20;;;;;;;;;;;;;;;2.73;75.63;101077.28;2073750;28;19914;-60
2021/11/22 03:13:20;;;;;;;;;;;;;;;2.74;75.57;101083.56;2074343;28;19913;-61
2021/11/22 03:14:20;;;;;;;;;;;;;;;2.76;75.76;101079.28;2073890;28;19914;-61
2021/11/22 03:15:21;;;;;;;;;;;;;;;2.77;75.71;101080.88;2074529;28;20310;-61
2021/11/22 03:16:22;;;;;;;;;;;;;;;2.78;75.71;101084.41;2074428;28;20294;-61
2021/11/22 03:17:22;;;;;;;;;;;;;;;2.79;75.49;101085.97;2065368;28;19914;-61
2021/11/22 03:18:23;;;;;;;;;;;;;;;2.78;75.47;101087.91;2065794;28;19914;-61
2021/11/22 03:19:23;;;;;;;;;;;;;;;2.78;75.32;101084.41;2074264;28;20505;-61
2021/11/22 03:20:24;;;;;;;;;;;;;;;2.77;75.38;101083.59;2074439;28;20327;-61
2021/11/22 03:21:24;;;;;;;;;;;;;;;2.78;75.51;101081.66;2074482;28;19914;-61
2021/11/22 03:22:24;;;;;;;;;;;;;;;2.78;75.51;101076.97;2073580;28;19944;-61
2021/11/22 03:23:25;;;;;;;;;;;;;;;2.78;75.88;101089.88;2074340;28;19956;-61
2021/11/22 03:24:26;;;;;;;;;;;;;;;2.79;76.06;101086.78;2073874;28;20003;-61
2021/11/22 03:25:31;;;;;;;;;;;;;;;2.78;75.79;101081.66;2065408;28;19917;-61
2021/11/22 03:26:31;;;;;;;;;;;;;;;2.76;75.74;101084.75;2066133;28;19920;-61
2021/11/22 03:27:32;;;;;;;;;;;;;;;2.76;75.69;101092.97;2074141;28;19917;-61
2021/11/22 03:28:32;;;;;;;;;;;;;;;2.75;75.62;101085.13;2074269;28;19920;-61
2021/11/22 03:29:32;;;;;;;;;;;;;;;2.75;75.90;101082.41;2074373;28;19913;-61
2021/11/22 03:30:33;;;;;;;;;;;;;;;2.76;75.87;101084.75;2074330;28;19963;-61
2021/11/22 03:31:36;;;;;;;;;;;;;;;2.78;75.90;101078.94;2074345;28;19947;-61
2021/11/22 03:32:36;;;;;;;;;;;;;;;2.78;76.21;101089.88;2073862;28;19956;-61
2021/11/22 03:33:37;;;;;;;;;;;;;;;2.79;75.92;101089.50;2065235;28;20411;-61
2021/11/22 03:34:37;;;;;;;;;;;;;;;2.80;76.35;101087.56;2065627;28;19914;-61
2021/11/22 03:35:38;;;;;;;;;;;;;;;2.79;76.54;101086.78;2073677;28;19913;-61
2021/11/22 03:36:40;;;;;;;;;;;;;;;2.79;76.47;101086.78;2074258;28;19921;-61
2021/11/22 03:37:41;;;;;;;;;;;;;;;2.80;76.08;101090.28;2073895;28;19981;-61
2021/11/22 03:38:42;;;;;;;;;;;;;;;2.79;76.18;101088.72;2074233;28;20092;-61
2021/11/22 03:39:47;;;;;;;;;;;;;;;2.79;76.33;101092.25;2074307;28;19917;-61
2021/11/22 03:40:49;;;;;;;;;;;;;;;2.79;76.09;101092.25;2074324;28;19917;-61
2021/11/22 03:41:50;;;;;;;;;;;;;;;2.79;76.02;101081.31;2065381;28;19920;-61
2021/11/22 03:43:35;;;;;;;;;;;;;;;2.79;75.97;101092.25;2065290;28;19972;-60
2021/11/22 03:44:14;;;;;;;;;;;;;;;2.79;75.86;101096.94;2068181;28;19914;-61
2021/11/22 03:45:14;;;;;;;;;;;;;;;2.79;76.43;101097.72;2074265;28;19971;-61
2021/11/22 03:46:16;;;;;;;;;;;;;;;2.79;76.13;101097.72;2073888;28;19936;-61
2021/11/22 03:47:16;;;;;;;;;;;;;;;2.81;76.00;101105.53;2073859;28;19920;-61
2021/11/22 03:48:16;;;;;;;;;;;;;;;2.81;76.27;101100.06;2074150;28;19920;-61
2021/11/22 03:49:17;;;;;;;;;;;;;;;2.78;75.96;101104.34;2074276;28;19949;-61
2021/11/22 03:50:18;;;;;;;;;;;;;;;2.80;76.43;101098.50;2074105;28;19913;-61
2021/11/22 03:51:19;;;;;;;;;;;;;;;2.78;76.25;101100.81;2074339;28;19918;-61
2021/11/22 03:52:19;;;;;;;;;;;;;;;2.78;76.33;101104.34;2073826;28;19914;-61
2021/11/22 03:53:20;;;;;;;;;;;;;;;2.78;76.39;101109.81;2065385;28;19929;-61
2021/11/22 03:54:20;;;;;;;;;;;;;;;2.78;76.13;101103.56;2064875;28;20007;-61
2021/11/22 03:55:20;;;;;;;;;;;;;;;2.76;76.47;101103.13;2074051;28;20323;-61
2021/11/22 03:56:21;;;;;;;;;;;;;;;2.71;76.09;101101.50;2073558;28;19914;-61
2021/11/22 03:57:23;;;;;;;;;;;;;;;2.61;75.43;101104.06;2073869;28;20308;-61
2021/11/22 03:58:23;;;;;;;;;;;;;;;2.47;75.68;101104.63;2074191;28;19914;-61
2021/11/22 03:59:23;;;;;;;;;;;;;;;2.44;75.48;101108.13;2066030;28;19929;-61
2021/11/22 04:00:24;;;;;;;;;;;;;;;2.35;75.06;101095.81;2065992;28;19964;-61
2021/11/22 04:01:25;;;;;;;;;;;;;;;2.21;75.63;101104.56;2057421;28;19976;-61
2021/11/22 04:02:25;;;;;;;;;;;;;;;2.20;76.08;101110.41;2056904;28;20405;-61
2021/11/22 04:03:26;;;;;;;;;;;;;;;2.16;75.92;101099.41;2066002;28;19914;-61
2021/11/22 04:04:26;;;;;;;;;;;;;;;2.09;76.14;101104.75;2065964;28;20010;-61
2021/11/22 04:05:27;;;;;;;;;;;;;;;2.10;76.25;101108.31;2065439;28;19913;-61
2021/11/22 04:06:27;;;;;;;;;;;;;;;2.05;76.31;101100.41;2065403;28;20285;-61
2021/11/22 04:07:27;;;;;;;;;;;;;;;1.98;76.65;101109.25;2065484;28;19914;-60
2021/11/22 04:08:28;;;;;;;;;;;;;;;2.05;77.05;101105.88;2065863;28;19968;-61
2021/11/22 04:09:28;;;;;;;;;;;;;;;2.10;76.45;101098.13;2065976;28;19914;-61
2021/11/22 04:10:28;;;;;;;;;;;;;;;2.10;76.30;101100.09;2066050;28;19925;-61
2021/11/22 04:11:29;;;;;;;;;;;;;;;2.11;77.20;101113.38;2065906;28;19914;-61
2021/11/22 04:12:29;;;;;;;;;;;;;;;2.09;76.81;101109.44;2065627;28;20374;-61
2021/11/22 04:13:30;;;;;;;;;;;;;;;2.05;76.89;101112.09;2057252;28;19958;-61
2021/11/22 04:14:30;;;;;;;;;;;;;;;2.02;76.83;101109.31;2057328;28;19929;-61
2021/11/22 04:15:30;;;;;;;;;;;;;;;2.02;76.66;101103.84;2056982;28;19925;-60
2021/11/22 04:16:31;;;;;;;;;;;;;;;2.03;77.13;101110.88;2057133;28;20396;-61
2021/11/22 04:17:32;;;;;;;;;;;;;;;2.00;77.06;101112.41;2065030;28;19914;-61
2021/11/22 04:18:33;;;;;;;;;;;;;;;1.99;76.88;101112.75;2065948;28;19983;-61
2021/11/22 04:19:33;;;;;;;;;;;;;;;1.94;76.56;101105.66;2065818;28;19918;-61
2021/11/22 04:20:34;;;;;;;;;;;;;;;1.92;77.16;101109.91;2065821;28;19918;-61
2021/11/22 04:21:34;;;;;;;;;;;;;;;1.96;76.93;101108.03;2065936;28;20407;-61
2021/11/22 04:22:35;;;;;;;;;;;;;;;1.96;77.08;101108.81;2065224;28;19914;-61
2021/11/22 04:23:35;;;;;;;;;;;;;;;1.98;77.39;101106.53;2065701;28;19963;-61
2021/11/22 04:24:36;;;;;;;;;;;;;;;1.96;77.45;101099.84;2065761;28;19913;-61
2021/11/22 04:25:36;;;;;;;;;;;;;;;1.92;77.22;101104.44;2065921;28;19949;-61
2021/11/22 04:26:37;;;;;;;;;;;;;;;1.91;77.53;101108.34;2065194;28;19925;-61
2021/11/22 04:27:37;;;;;;;;;;;;;;;1.90;77.38;101099.34;2065162;28;19914;-61
2021/11/22 04:28:38;;;;;;;;;;;;;;;1.93;77.74;101106.00;2065528;28;20327;-61
2021/11/22 04:29:42;;;;;;;;;;;;;;;1.94;77.28;101105.66;2065967;28;19971;-61
2021/11/22 04:30:43;;;;;;;;;;;;;;;1.97;77.73;101109.63;2065642;28;19921;-61
2021/11/22 04:31:43;;;;;;;;;;;;;;;1.99;77.70;101107.28;2068582;28;19918;-61
2021/11/22 04:32:44;;;;;;;;;;;;;;;2.00;77.79;101106.94;2081263;28;19927;-61
2021/11/22 04:33:44;;;;;;;;;;;;;;;2.03;78.31;101111.69;2082186;28;19920;-61
2021/11/22 04:34:44;;;;;;;;;;;;;;;2.05;78.60;101105.88;2082065;28;19913;-61
2021/11/22 04:35:45;;;;;;;;;;;;;;;2.06;78.47;101113.69;2081304;28;19919;-61
2021/11/22 04:36:45;;;;;;;;;;;;;;;2.07;78.33;101107.09;2081941;28;19913;-61
2021/11/22 04:37:45;;;;;;;;;;;;;;;2.10;78.22;101120.00;2081145;28;19913;-61
2021/11/22 04:38:46;;;;;;;;;;;;;;;2.10;78.37;101116.50;2081867;28;19956;-61
2021/11/22 04:39:46;;;;;;;;;;;;;;;2.08;78.20;101111.41;2081988;28;20016;-61
2021/11/22 04:40:46;;;;;;;;;;;;;;;2.10;77.93;101114.53;2081928;28;20021;-60
2021/11/22 04:41:47;;;;;;;;;;;;;;;2.14;78.29;101120.88;2082075;28;19913;-61
2021/11/22 04:42:49;;;;;;;;;;;;;;;2.17;78.25;101125.59;2081637;28;19917;-61
2021/11/22 04:43:49;;;;;;;;;;;;;;;2.19;77.69;101114.28;2081974;28;19970;-61
2021/11/22 04:44:50;;;;;;;;;;;;;;;2.21;77.75;101118.25;2082008;28;20371;-61
2021/11/22 04:45:50;;;;;;;;;;;;;;;2.20;78.04;101115.88;2081964;28;19920;-61
2021/11/22 04:46:51;;;;;;;;;;;;;;;2.23;77.76;101118.69;2073178;28;20280;-61
2021/11/22 04:47:51;;;;;;;;;;;;;;;2.23;77.47;101118.69;2072127;28;20196;-61
2021/11/22 04:48:52;;;;;;;;;;;;;;;2.25;77.17;101121.03;2081543;28;20397;-61
2021/11/22 04:49:53;;;;;;;;;;;;;;;2.26;77.17;101119.91;2081929;28;19920;-61
2021/11/22 04:50:53;;;;;;;;;;;;;;;2.20;77.06;101124.88;2081920;28;19913;-61
2021/11/22 04:51:54;;;;;;;;;;;;;;;2.14;77.29;101115.41;2081892;28;19956;-61
2021/11/22 04:52:55;;;;;;;;;;;;;;;2.15;77.18;101127.91;2077524;28;20380;-61
2021/11/22 04:53:56;;;;;;;;;;;;;;;2.17;76.76;101128.31;2073723;28;20459;-61
2021/11/22 04:54:56;;;;;;;;;;;;;;;2.18;76.77;101113.53;2065033;28;20323;-61
2021/11/22 04:55:56;;;;;;;;;;;;;;;2.19;77.27;101120.56;2064965;28;19925;-61
2021/11/22 04:56:57;;;;;;;;;;;;;;;2.18;76.79;101124.47;2073415;28;19914;-61
2021/11/22 04:57:57;;;;;;;;;;;;;;;2.16;76.64;101125.97;2073265;28;20384;-61
2021/11/22 04:58:57;;;;;;;;;;;;;;;2.14;76.29;101115.41;2072795;28;19921;-61
2021/11/22 04:59:58;;;;;;;;;;;;;;;2.13;76.40;101126.69;2073642;28;19920;-61
2021/11/22 05:00:58;;;;;;;;;;;;;;;2.11;76.67;101124.31;2073734;28;20379;-61
2021/11/22 05:01:59;;;;;;;;;;;;;;;2.12;76.76;101123.19;2064819;28;20375;-61
2021/11/22 05:02:59;;;;;;;;;;;;;;;2.15;76.96;101121.66;2064640;28;19913;-61
2021/11/22 05:04:00;;;;;;;;;;;;;;;2.15;76.54;101127.91;2073618;28;19953;-61
2021/11/22 05:05:00;;;;;;;;;;;;;;;2.17;76.62;101127.56;2073695;28;20001;-61
2021/11/22 05:06:01;;;;;;;;;;;;;;;2.17;76.93;101128.31;2073514;28;19920;-61
2021/11/22 05:07:05;;;;;;;;;;;;;;;2.17;76.55;101119.34;2073261;28;19914;-61
2021/11/22 05:08:07;;;;;;;;;;;;;;;2.11;76.15;101120.81;2073540;28;19917;-61
2021/11/22 05:09:07;;;;;;;;;;;;;;;2.05;75.86;101131.25;2072675;28;20318;-61
2021/11/22 05:10:09;;;;;;;;;;;;;;;2.00;75.29;101120.59;2073485;28;19917;-61
2021/11/22 05:11:10;;;;;;;;;;;;;;;2.01;74.72;101127.66;2073664;28;20465;-61
2021/11/22 05:12:10;;;;;;;;;;;;;;;2.01;74.20;101126.88;2073158;28;20373;-61
2021/11/22 05:13:11;;;;;;;;;;;;;;;2.00;73.81;101126.06;2073623;28;19913;-61
2021/11/22 05:14:12;;;;;;;;;;;;;;;1.99;73.98;101129.97;2073454;28;19918;-61
2021/11/22 05:15:13;;;;;;;;;;;;;;;1.95;74.02;101123.63;2064969;28;20280;-61
2021/11/22 05:16:14;;;;;;;;;;;;;;;1.88;74.02;101126.25;2064917;28;20428;-61
2021/11/22 05:17:14;;;;;;;;;;;;;;;1.90;74.07;101132.13;2073364;28;19917;-61